Terminal Aerodrome Forecast
Issued by NWS Brownsville, TX

Home | Current Version | Previous Version | Text Only | Print | Product List | Glossary On
Versions: 1 2 3 4 5 6 7 8 9 10 11 12 13 14 15 16 17
883
FTUS44 KBRO 190529
TAFMFE
TAF
KMFE 190529Z 1906/2006 01014G25KT P6SM SCT050
     FM191800 36012G18KT P6SM SKC
     FM192000 36009G16KT P6SM SKC
     FM200000 05006KT P6SM SKC=

USA.gov is the U.S. government's official web portal to all federal, state and local government web resources and services.